createdAt,value
2019-06-26T00:01:47.264Z,99.90
2019-06-26T00:04:17.207Z,99.90
2019-06-26T00:06:46.904Z,99.90
2019-06-26T00:09:16.550Z,99.90
2019-06-26T00:11:46.310Z,99.90
2019-06-26T00:14:17.013Z,99.90
2019-06-26T00:16:46.669Z,99.90
2019-06-26T00:19:16.662Z,99.90
2019-06-26T00:21:46.304Z,99.90
2019-06-26T00:24:16.327Z,99.90
2019-06-26T00:26:46.158Z,99.90
2019-06-26T00:29:15.891Z,99.90
2019-06-26T00:31:45.531Z,99.90
2019-06-26T00:34:16.425Z,99.90
2019-06-26T00:36:46.068Z,99.90
2019-06-26T00:39:16.152Z,99.90
2019-06-26T00:41:45.819Z,99.90
2019-06-26T00:44:15.857Z,99.90
2019-06-26T00:46:45.629Z,99.90
2019-06-26T00:49:15.695Z,99.90
2019-06-26T00:51:45.474Z,99.90
2019-06-26T00:54:15.108Z,99.90
2019-06-26T00:56:44.773Z,99.90
2019-06-26T00:59:14.630Z,99.90
2019-06-26T01:01:44.284Z,99.90
2019-06-26T01:04:18.099Z,99.90
2019-06-26T01:06:48.282Z,99.90
2019-06-26T01:09:18.091Z,99.90
2019-06-26T01:11:48.066Z,99.90
2019-06-26T01:14:18.207Z,99.90
2019-06-26T01:16:49.336Z,99.90
2019-06-26T01:19:18.984Z,99.90
2019-06-26T01:21:49.183Z,99.90
2019-06-26T01:24:19.234Z,99.90
2019-06-26T01:26:49.445Z,99.90
2019-06-26T01:29:19.144Z,99.90
2019-06-26T01:31:48.991Z,99.90
2019-06-26T01:34:18.692Z,99.90
2019-06-26T01:36:48.432Z,99.90
2019-06-26T01:39:18.086Z,99.90
2019-06-26T01:41:47.827Z,99.90
2019-06-26T01:44:17.472Z,99.90
2019-06-26T01:46:47.272Z,99.90
2019-06-26T01:49:17.029Z,99.90
2019-06-26T01:51:46.730Z,99.90
2019-06-26T01:54:17.467Z,99.90
2019-06-26T01:56:47.236Z,99.90
2019-06-26T01:59:17.011Z,99.90
2019-06-26T02:01:46.918Z,99.90
2019-06-26T02:04:16.643Z,99.90
2019-06-26T02:06:46.305Z,99.90
2019-06-26T02:09:16.368Z,99.90
2019-06-26T02:11:46.104Z,99.90
2019-06-26T02:14:29.890Z,99.90
2019-06-26T02:16:47.662Z,99.90
2019-06-26T02:19:18.604Z,99.90
2019-06-26T02:21:49.791Z,99.90
2019-06-26T02:24:19.440Z,99.90
2019-06-26T02:26:49.620Z,99.90
2019-06-26T02:29:19.346Z,99.90
2019-06-26T02:31:49.195Z,99.90
2019-06-26T02:34:19.355Z,99.90
2019-06-26T02:36:49.221Z,99.90
2019-06-26T02:39:18.883Z,99.90
2019-06-26T02:41:48.615Z,99.90
2019-06-26T02:44:18.277Z,99.90
2019-06-26T02:46:47.959Z,99.90
2019-06-26T02:49:17.951Z,99.90
2019-06-26T02:51:47.589Z,99.90
2019-06-26T02:54:17.389Z,99.90
2019-06-26T02:56:47.016Z,99.90
2019-06-26T02:59:16.691Z,99.90
2019-06-26T03:01:46.389Z,99.90
2019-06-26T03:04:16.175Z,99.90
2019-06-26T03:06:46.080Z,99.90
2019-06-26T03:09:15.796Z,99.90
2019-06-26T03:11:45.687Z,99.90
2019-06-26T03:14:15.335Z,99.90
2019-06-26T03:16:45.231Z,99.90
2019-06-26T03:19:14.888Z,99.90
2019-06-26T03:21:44.519Z,99.90
2019-06-26T03:24:14.311Z,99.90
2019-06-26T03:26:43.983Z,99.90
2019-06-26T03:29:13.708Z,99.90
2019-06-26T03:31:43.469Z,99.90
2019-06-26T03:34:13.232Z,99.90
2019-06-26T03:36:42.871Z,99.90
2019-06-26T03:39:12.520Z,99.90
2019-06-26T03:41:42.147Z,99.90
2019-06-26T03:44:11.822Z,99.90
2019-06-26T03:46:41.724Z,99.90
2019-06-26T03:49:12.089Z,99.90
2019-06-26T03:51:41.739Z,99.90
2019-06-26T03:54:11.504Z,99.90
2019-06-26T03:56:42.111Z,99.90
2019-06-26T03:59:11.787Z,99.90
2019-06-26T04:01:41.425Z,99.90
2019-06-26T04:04:11.093Z,99.90
2019-06-26T04:06:41.062Z,99.90
2019-06-26T04:09:11.024Z,99.90
2019-06-26T04:11:40.954Z,99.90
2019-06-26T04:14:10.590Z,99.90
2019-06-26T04:16:40.329Z,99.90
2019-06-26T04:19:10.159Z,99.90
2019-06-26T04:21:40.144Z,99.90
2019-06-26T04:24:09.866Z,99.90
2019-06-26T04:26:39.835Z,99.90
2019-06-26T04:29:09.545Z,99.90
2019-06-26T04:31:39.291Z,99.90
2019-06-26T04:34:09.029Z,99.90
2019-06-26T04:36:38.686Z,99.90
2019-06-26T04:39:08.426Z,99.90
2019-06-26T04:41:38.062Z,99.90
2019-06-26T04:44:07.800Z,99.90
2019-06-26T04:46:37.788Z,99.90
2019-06-26T04:49:07.762Z,99.90
2019-06-26T04:51:37.481Z,99.90
2019-06-26T04:54:07.244Z,99.90
2019-06-26T04:56:36.979Z,99.90
2019-06-26T04:59:06.799Z,99.90
2019-06-26T05:01:36.608Z,99.90
2019-06-26T05:04:06.576Z,99.90
2019-06-26T05:06:36.320Z,99.90
2019-06-26T05:09:07.481Z,99.90
2019-06-26T05:11:37.146Z,99.90
2019-06-26T05:14:06.860Z,99.90
2019-06-26T05:16:36.754Z,99.90
2019-06-26T05:19:06.735Z,99.90
2019-06-26T05:21:36.955Z,99.90
2019-06-26T05:24:07.733Z,99.90
2019-06-26T05:26:37.651Z,99.90
2019-06-26T05:29:07.488Z,99.90
2019-06-26T05:31:37.531Z,99.90
2019-06-26T05:34:10.777Z,99.90
2019-06-26T05:36:38.659Z,99.90
2019-06-26T05:39:08.504Z,99.90
2019-06-26T05:41:38.579Z,99.90
2019-06-26T05:44:08.325Z,99.90
2019-06-26T05:46:38.231Z,99.90
2019-06-26T05:49:11.115Z,99.90
2019-06-26T05:51:41.078Z,99.90
2019-06-26T05:54:11.015Z,99.90
2019-06-26T05:56:41.090Z,99.90
2019-06-26T05:59:10.818Z,99.90
2019-06-26T06:01:40.518Z,99.90
2019-06-26T06:04:10.192Z,99.90
2019-06-26T06:06:42.166Z,99.90
2019-06-26T06:09:11.317Z,99.90
2019-06-26T06:11:41.335Z,99.90
2019-06-26T06:14:11.384Z,99.90
2019-06-26T06:16:47.485Z,99.90
2019-06-26T06:19:12.751Z,99.90
2019-06-26T06:21:42.383Z,99.90
2019-06-26T06:24:12.339Z,99.90
2019-06-26T06:26:42.015Z,99.90
2019-06-26T06:29:12.069Z,99.20
2019-06-26T06:31:41.688Z,99.90
2019-06-26T06:34:11.447Z,99.80
2019-06-26T06:36:41.067Z,99.80
2019-06-26T06:39:11.279Z,98.80
2019-06-26T06:41:43.365Z,99.20
2019-06-26T06:44:13.018Z,99.50
2019-06-26T06:46:42.741Z,99.70
2019-06-26T06:49:12.634Z,99.00
2019-06-26T06:51:42.438Z,98.90
2019-06-26T06:54:12.148Z,99.70
2019-06-26T06:56:41.790Z,99.70
2019-06-26T06:59:11.809Z,99.40
2019-06-26T07:01:41.434Z,99.50
2019-06-26T07:04:11.311Z,98.90
2019-06-26T07:06:41.543Z,99.00
2019-06-26T07:09:11.531Z,98.00
2019-06-26T07:11:41.160Z,98.90
2019-06-26T07:14:10.795Z,97.90
2019-06-26T07:16:40.438Z,98.40
2019-06-26T07:19:10.694Z,98.00
2019-06-26T07:21:40.611Z,98.40
2019-06-26T07:24:10.249Z,97.80
2019-06-26T07:26:39.964Z,97.10
2019-06-26T07:29:09.623Z,96.80
2019-06-26T07:31:39.260Z,97.40
2019-06-26T07:34:08.951Z,96.50
2019-06-26T07:36:38.599Z,96.40
2019-06-26T07:39:08.331Z,97.20
2019-06-26T07:41:37.958Z,97.50
2019-06-26T07:44:07.722Z,97.30
2019-06-26T07:46:37.788Z,96.60
2019-06-26T07:49:07.430Z,96.90
2019-06-26T07:51:37.077Z,97.00
2019-06-26T07:54:07.517Z,98.10
2019-06-26T07:56:37.161Z,97.00
2019-06-26T07:59:06.830Z,97.00
2019-06-26T08:01:36.539Z,96.80
2019-06-26T08:04:06.184Z,95.90
2019-06-26T08:06:36.352Z,95.60
2019-06-26T08:09:06.961Z,95.60
2019-06-26T08:11:36.822Z,95.00
2019-06-26T08:14:06.637Z,95.00
2019-06-26T08:16:36.388Z,94.10
2019-06-26T08:19:06.071Z,94.40
2019-06-26T08:21:35.788Z,93.50
2019-06-26T08:24:05.651Z,94.10
2019-06-26T08:26:35.303Z,93.20
2019-06-26T08:29:05.332Z,93.30
2019-06-26T08:31:34.971Z,91.60
2019-06-26T08:34:04.747Z,91.90
2019-06-26T08:36:34.603Z,91.70
2019-06-26T08:39:05.788Z,90.80
2019-06-26T08:41:36.070Z,91.30
2019-06-26T08:44:07.028Z,92.00
2019-06-26T08:46:36.937Z,91.00
2019-06-26T08:49:06.586Z,91.30
2019-06-26T08:51:39.115Z,90.50
2019-06-26T08:54:09.155Z,91.20
2019-06-26T08:56:39.022Z,91.20
2019-06-26T08:59:09.738Z,90.90
2019-06-26T09:01:39.437Z,91.20
2019-06-26T09:04:09.203Z,90.60
2019-06-26T09:06:39.142Z,89.10
2019-06-26T09:09:09.034Z,89.70
2019-06-26T09:11:38.723Z,90.40
2019-06-26T09:14:08.432Z,91.10
2019-06-26T09:16:39.118Z,90.70
2019-06-26T09:19:08.851Z,90.80
2019-06-26T09:21:38.532Z,90.40
2019-06-26T09:24:08.756Z,91.40
2019-06-26T09:26:38.381Z,90.70
2019-06-26T09:29:08.416Z,90.10
2019-06-26T09:31:38.171Z,89.90
2019-06-26T09:34:07.893Z,89.00
2019-06-26T09:36:37.515Z,89.60
2019-06-26T09:39:08.153Z,89.50
2019-06-26T09:41:37.836Z,90.20
2019-06-26T09:44:09.372Z,91.00
2019-06-26T09:46:39.004Z,88.80
2019-06-26T09:49:08.658Z,88.20
2019-06-26T09:51:38.312Z,86.40
2019-06-26T09:54:08.203Z,89.10
2019-06-26T09:56:37.870Z,87.80
2019-06-26T09:59:07.504Z,87.40
2019-06-26T10:01:37.580Z,87.80
2019-06-26T10:04:07.515Z,90.30
2019-06-26T10:06:37.152Z,88.80
2019-06-26T10:09:07.869Z,90.30
2019-06-26T10:11:37.566Z,90.30
2019-06-26T10:14:07.329Z,90.00
2019-06-26T10:16:37.228Z,90.20
2019-06-26T10:19:10.668Z,91.10
2019-06-26T10:21:38.575Z,91.80
2019-06-26T10:24:08.392Z,91.70
2019-06-26T10:26:39.384Z,91.70
2019-06-26T10:29:10.081Z,92.20
2019-06-26T10:31:39.732Z,92.20
2019-06-26T10:34:10.326Z,91.80
2019-06-26T10:36:41.187Z,92.10
2019-06-26T10:39:10.971Z,92.10
2019-06-26T10:41:40.668Z,92.20
2019-06-26T10:44:10.286Z,92.20
2019-06-26T10:46:40.220Z,92.00
2019-06-26T10:49:25.896Z,92.00
2019-06-26T10:51:41.715Z,92.40
2019-06-26T10:54:11.532Z,92.40
2019-06-26T10:56:41.232Z,92.60
2019-06-26T10:59:10.931Z,92.60
2019-06-26T11:01:40.645Z,92.30
2019-06-26T11:04:10.647Z,91.50
2019-06-26T11:06:40.730Z,91.60
2019-06-26T11:09:10.362Z,91.30
2019-06-26T11:11:40.257Z,91.50
2019-06-26T11:14:10.156Z,90.60
2019-06-26T11:16:39.792Z,90.90
2019-06-26T11:19:09.431Z,91.60
2019-06-26T11:21:40.268Z,91.10
2019-06-26T11:24:09.961Z,91.10
2019-06-26T11:26:39.675Z,91.30
2019-06-26T11:29:09.302Z,90.40
2019-06-26T11:31:38.998Z,91.30
2019-06-26T11:34:09.067Z,91.10
2019-06-26T11:36:38.708Z,92.50
2019-06-26T11:39:08.739Z,92.10
2019-06-26T11:41:38.524Z,91.90
2019-06-26T11:44:08.368Z,92.30
2019-06-26T11:46:38.016Z,92.10
2019-06-26T11:49:07.642Z,91.90
2019-06-26T11:51:37.356Z,91.60
2019-06-26T11:54:07.120Z,91.60
2019-06-26T11:56:37.040Z,91.90
2019-06-26T11:59:06.758Z,91.40
2019-06-26T12:01:36.684Z,91.90
2019-06-26T12:04:06.578Z,91.80
2019-06-26T12:06:36.206Z,92.10
2019-06-26T12:09:07.794Z,92.60
2019-06-26T12:11:37.642Z,92.00
2019-06-26T12:14:07.619Z,92.80
2019-06-26T12:16:37.239Z,91.90
2019-06-26T12:19:06.882Z,92.00
2019-06-26T12:21:37.187Z,91.30
2019-06-26T12:24:07.087Z,92.30
2019-06-26T12:26:37.127Z,93.10
2019-06-26T12:29:06.978Z,92.70
2019-06-26T12:31:36.862Z,92.80
2019-06-26T12:34:06.720Z,92.70
2019-06-26T12:36:36.414Z,92.80
2019-06-26T12:39:07.052Z,93.40
2019-06-26T12:41:36.670Z,93.70
2019-06-26T12:44:06.407Z,93.10
2019-06-26T12:46:36.149Z,93.20
2019-06-26T12:49:05.767Z,93.60
2019-06-26T12:51:35.695Z,93.70
2019-06-26T12:54:05.431Z,93.60
2019-06-26T12:56:35.050Z,93.30
2019-06-26T12:59:04.688Z,93.40
2019-06-26T13:01:34.432Z,94.00
2019-06-26T13:04:04.173Z,94.40
2019-06-26T13:06:33.853Z,94.90
2019-06-26T13:09:04.006Z,94.90
2019-06-26T13:11:33.789Z,95.70
2019-06-26T13:14:03.439Z,95.50
2019-06-26T13:16:33.325Z,96.40
2019-06-26T13:19:02.955Z,96.30
2019-06-26T13:21:32.697Z,95.90
2019-06-26T13:24:02.399Z,95.70
2019-06-26T13:26:32.296Z,97.10
2019-06-26T13:29:02.422Z,97.00
2019-06-26T13:31:32.407Z,96.50
2019-06-26T13:34:02.314Z,96.90
2019-06-26T13:36:31.937Z,96.60
2019-06-26T13:39:01.568Z,97.20
2019-06-26T13:41:32.912Z,97.70
2019-06-26T13:44:02.589Z,97.20
2019-06-26T13:46:32.218Z,97.90
2019-06-26T13:49:02.098Z,98.50
2019-06-26T13:51:32.117Z,98.40
2019-06-26T13:54:01.747Z,97.60
2019-06-26T13:56:31.383Z,98.10
2019-06-26T13:59:01.127Z,98.20
2019-06-26T14:01:31.840Z,97.50
2019-06-26T14:04:01.478Z,98.10
2019-06-26T14:06:31.197Z,98.70
2019-06-26T14:09:00.857Z,97.70
2019-06-26T14:11:32.161Z,98.10
2019-06-26T14:14:01.805Z,98.60
2019-06-26T14:16:31.504Z,98.60
2019-06-26T14:19:01.183Z,98.70
2019-06-26T14:21:31.047Z,98.70
2019-06-26T14:24:01.239Z,98.10
2019-06-26T14:26:30.875Z,99.30
2019-06-26T14:29:00.610Z,97.80
2019-06-26T14:31:30.513Z,97.70
2019-06-26T14:34:00.138Z,97.30
2019-06-26T14:36:29.763Z,97.60
2019-06-26T14:38:59.436Z,97.30
2019-06-26T14:41:29.390Z,97.20
2019-06-26T14:43:59.099Z,97.60
2019-06-26T14:46:28.783Z,97.90
2019-06-26T14:48:58.626Z,97.30
2019-06-26T14:51:43.484Z,97.20
2019-06-26T14:53:59.698Z,97.40
2019-06-26T14:56:29.371Z,97.30
2019-06-26T14:58:58.991Z,96.40
2019-06-26T15:01:28.701Z,95.70
2019-06-26T15:03:58.343Z,96.70
2019-06-26T15:06:28.207Z,96.70
2019-06-26T15:08:58.124Z,96.90
2019-06-26T15:11:27.756Z,96.60
2019-06-26T15:13:57.411Z,96.50
2019-06-26T15:16:30.393Z,96.40
2019-06-26T15:18:59.717Z,96.60
2019-06-26T15:21:29.426Z,96.60
2019-06-26T15:23:59.068Z,96.60
2019-06-26T15:26:29.748Z,96.20
2019-06-26T15:28:59.378Z,96.50
2019-06-26T15:31:29.011Z,97.10
2019-06-26T15:33:58.750Z,96.60
2019-06-26T15:36:28.363Z,96.20
2019-06-26T15:38:59.198Z,96.20
2019-06-26T15:41:29.226Z,96.00
2019-06-26T15:43:59.367Z,96.00
2019-06-26T15:46:29.144Z,95.90
2019-06-26T15:48:58.779Z,96.00
2019-06-26T15:51:28.417Z,95.80
2019-06-26T15:54:00.053Z,96.30
2019-06-26T15:56:29.393Z,95.60
2019-06-26T15:58:59.119Z,95.70
2019-06-26T16:01:28.824Z,96.00
2019-06-26T16:03:58.859Z,97.00
2019-06-26T16:06:28.941Z,97.10
2019-06-26T16:08:58.652Z,96.80
2019-06-26T16:11:28.591Z,97.20
2019-06-26T16:13:59.124Z,96.70
2019-06-26T16:16:29.251Z,96.60
2019-06-26T16:19:03.878Z,97.10
2019-06-26T16:21:33.503Z,96.50
2019-06-26T16:24:03.140Z,96.90
2019-06-26T16:26:32.863Z,96.30
2019-06-26T16:29:02.504Z,97.00
2019-06-26T16:31:32.247Z,96.60
2019-06-26T16:34:01.947Z,95.80
2019-06-26T16:36:31.658Z,95.70
2019-06-26T16:39:01.372Z,96.00
2019-06-26T16:41:32.895Z,95.10
2019-06-26T16:44:03.656Z,95.00
2019-06-26T16:46:33.272Z,95.50
2019-06-26T16:49:03.227Z,95.30
2019-06-26T16:51:32.863Z,94.10
2019-06-26T16:54:02.968Z,93.80
2019-06-26T16:56:32.592Z,93.40
2019-06-26T16:59:02.557Z,93.40
2019-06-26T17:01:33.245Z,93.50
2019-06-26T17:04:02.947Z,94.30
2019-06-26T17:06:32.599Z,94.40
2019-06-26T17:09:02.334Z,94.50
2019-06-26T17:11:33.612Z,94.10
2019-06-26T17:14:03.299Z,94.30
2019-06-26T17:16:33.068Z,94.30
2019-06-26T17:19:02.748Z,94.60
2019-06-26T17:21:32.746Z,94.80
2019-06-26T17:24:02.495Z,95.40
2019-06-26T17:26:32.147Z,95.70
2019-06-26T17:29:01.780Z,95.60
2019-06-26T17:31:31.416Z,95.40
2019-06-26T17:34:01.123Z,95.10
2019-06-26T17:36:30.751Z,96.10
2019-06-26T17:39:00.451Z,96.20
2019-06-26T17:41:30.080Z,96.40
2019-06-26T17:44:00.066Z,96.90
2019-06-26T17:46:29.704Z,96.40
2019-06-26T17:48:59.930Z,96.50
2019-06-26T17:51:29.847Z,96.60
2019-06-26T17:54:00.067Z,96.70
2019-06-26T17:56:30.087Z,96.60
2019-06-26T17:58:59.808Z,97.10
2019-06-26T18:01:29.559Z,97.10
2019-06-26T18:03:59.180Z,97.20
2019-06-26T18:06:28.883Z,97.10
2019-06-26T18:08:58.915Z,97.60
2019-06-26T18:11:28.868Z,97.90
2019-06-26T18:13:58.783Z,98.00
2019-06-26T18:16:28.831Z,98.30
2019-06-26T18:18:58.489Z,98.50
2019-06-26T18:21:28.431Z,97.90
2019-06-26T18:23:58.179Z,98.50
2019-06-26T18:26:27.835Z,98.40
2019-06-26T18:28:57.450Z,98.60
2019-06-26T18:31:30.481Z,99.00
2019-06-26T18:33:58.525Z,99.20
2019-06-26T18:36:28.188Z,99.50
2019-06-26T18:38:57.807Z,99.70
2019-06-26T18:41:27.447Z,99.90
2019-06-26T18:43:57.087Z,99.90
2019-06-26T18:46:26.707Z,99.90
2019-06-26T18:48:56.410Z,99.90
2019-06-26T18:51:26.104Z,99.90
2019-06-26T18:53:56.072Z,99.90
2019-06-26T18:56:25.692Z,99.90
2019-06-26T18:58:55.444Z,99.90
2019-06-26T19:01:25.073Z,99.90
2019-06-26T19:03:54.871Z,99.90
2019-06-26T19:06:24.563Z,99.90
2019-06-26T19:08:54.251Z,99.90
2019-06-26T19:11:23.877Z,99.90
2019-06-26T19:13:53.508Z,99.90
2019-06-26T19:16:23.288Z,99.90
2019-06-26T19:18:52.973Z,99.90
2019-06-26T19:21:22.636Z,99.90
2019-06-26T19:23:52.364Z,99.90
2019-06-26T19:26:22.754Z,99.90
2019-06-26T19:28:52.939Z,99.90
2019-06-26T19:31:22.651Z,99.90
2019-06-26T19:33:52.380Z,99.90
2019-06-26T19:36:25.065Z,99.90
2019-06-26T19:38:53.490Z,99.90
2019-06-26T19:41:23.388Z,99.90
2019-06-26T19:43:53.027Z,99.90
2019-06-26T19:46:22.919Z,99.90
2019-06-26T19:48:52.951Z,99.90
2019-06-26T19:51:22.576Z,99.90
2019-06-26T19:53:52.215Z,99.90
2019-06-26T19:56:22.399Z,99.90
2019-06-26T19:58:52.154Z,99.90
2019-06-26T20:01:21.777Z,99.90
2019-06-26T20:03:51.411Z,99.90
2019-06-26T20:06:21.035Z,99.90
2019-06-26T20:08:56.198Z,99.90
2019-06-26T20:11:22.075Z,99.90
2019-06-26T20:13:52.213Z,99.90
2019-06-26T20:16:22.314Z,99.90
2019-06-26T20:18:51.953Z,99.90
2019-06-26T20:21:21.627Z,99.90
2019-06-26T20:23:51.499Z,99.90
2019-06-26T20:26:21.119Z,99.90
2019-06-26T20:28:50.987Z,99.90
2019-06-26T20:31:21.816Z,99.90
2019-06-26T20:33:51.452Z,99.90
2019-06-26T20:36:21.175Z,99.90
2019-06-26T20:38:51.091Z,99.90
2019-06-26T20:41:20.735Z,99.90
2019-06-26T20:43:50.540Z,99.90
2019-06-26T20:46:20.151Z,99.90
2019-06-26T20:48:49.798Z,99.90
2019-06-26T20:51:20.847Z,99.90
2019-06-26T20:53:50.823Z,99.90
2019-06-26T20:56:20.538Z,99.90
2019-06-26T20:58:50.294Z,99.90
2019-06-26T21:01:19.949Z,99.90
2019-06-26T21:03:49.605Z,99.90
2019-06-26T21:06:19.584Z,99.90
2019-06-26T21:08:49.231Z,99.90
2019-06-26T21:11:19.152Z,99.90
2019-06-26T21:13:49.015Z,99.90
2019-06-26T21:16:18.983Z,99.90
2019-06-26T21:18:48.700Z,99.90
2019-06-26T21:21:18.756Z,99.90
2019-06-26T21:23:48.464Z,99.90
2019-06-26T21:26:18.365Z,99.90
2019-06-26T21:28:49.059Z,99.90
2019-06-26T21:31:19.199Z,99.90
2019-06-26T21:33:48.835Z,99.90
2019-06-26T21:36:18.748Z,99.90
2019-06-26T21:38:48.471Z,99.90
2019-06-26T21:41:18.135Z,99.90
2019-06-26T21:43:48.084Z,99.90
2019-06-26T21:46:17.706Z,99.90
2019-06-26T21:48:48.028Z,99.90
2019-06-26T21:51:17.657Z,99.90
2019-06-26T21:53:48.073Z,99.90
2019-06-26T21:56:35.596Z,99.90
2019-06-26T21:59:23.638Z,99.90
2019-06-26T22:02:11.447Z,99.90
2019-06-26T22:04:54.827Z,99.90
2019-06-26T22:07:29.018Z,99.90
2019-06-26T22:10:12.594Z,99.90
2019-06-26T22:12:42.983Z,99.90
2019-06-26T22:15:12.881Z,99.90
2019-06-26T22:17:42.780Z,99.90
2019-06-26T22:20:13.101Z,99.90
2019-06-26T22:22:43.937Z,99.90
2019-06-26T22:25:13.820Z,99.90
2019-06-26T22:27:44.551Z,99.90
2019-06-26T22:30:14.846Z,99.90
2019-06-26T22:32:44.547Z,99.90
2019-06-26T22:35:14.436Z,99.90
2019-06-26T22:37:44.063Z,99.90
2019-06-26T22:40:13.839Z,99.90
2019-06-26T22:42:43.478Z,99.90
2019-06-26T22:45:13.765Z,99.90
2019-06-26T22:47:43.395Z,99.90
2019-06-26T22:50:13.596Z,99.90
2019-06-26T22:52:43.485Z,99.90
2019-06-26T22:55:13.421Z,99.90
2019-06-26T22:57:43.116Z,99.90
2019-06-26T23:00:15.228Z,99.90
2019-06-26T23:02:45.055Z,99.90
2019-06-26T23:05:14.983Z,99.90
2019-06-26T23:07:44.619Z,99.90
2019-06-26T23:10:14.919Z,99.90
2019-06-26T23:12:44.650Z,99.90
2019-06-26T23:15:15.055Z,99.90
2019-06-26T23:17:44.777Z,99.90
2019-06-26T23:20:14.680Z,99.90
2019-06-26T23:22:44.425Z,99.90
2019-06-26T23:25:14.590Z,99.90
2019-06-26T23:27:44.567Z,99.90
2019-06-26T23:30:21.473Z,99.90
2019-06-26T23:32:51.332Z,99.90
2019-06-26T23:35:20.967Z,99.90
2019-06-26T23:37:50.917Z,99.90
2019-06-26T23:40:21.595Z,99.90
2019-06-26T23:42:51.233Z,99.90
2019-06-26T23:45:20.931Z,99.90
2019-06-26T23:47:50.629Z,99.90
2019-06-26T23:50:20.508Z,99.90
2019-06-26T23:52:50.289Z,99.90
2019-06-26T23:55:20.008Z,99.90
2019-06-26T23:57:58.900Z,99.90
